Andersonville, MI

6:03 PM EST on February 26, 2017 (GMT -0500)
Clarkston Station | | Change Station

Elev 1033 ft 42.70 °N, 83.44 °W | Updated 39 seconds ago

Partly Cloudy
Partly Cloudy
38.0 °F
Feels Like 31 °F
N
10.0
Wind Variable Wind from South

Today
High -- | Low -- °F
--% Chance of Precip.
Yesterday
High -- | Low -- °F
Precip. -- in
Pressure 29.98 in
Visibility 10.0 miles
Clouds Few 5000 ft
Few 11000 ft
Windchill 31 °F
Dew Point 20 °F
Humidity 49%
Rainfall 0.00 in
Snow Depth Not available.
7:13 AM 6:20 PM
New Moon, 0% visible
METAR KPTK 262253Z 21013G22KT 10SM FEW050 FEW110 04/M08 A2994 RMK AO2 SLP150 T00391078 $
Pressure 29.98 in
Visibility 10.0 miles
Clouds Few 5000 ft
Few 11000 ft
Windchill 31 °F
Dew Point 20 °F
Humidity 49%
Rainfall 0.00 in
Snow Depth Not available.
7:13 AM 6:20 PM
New Moon, 0% visible
METAR KPTK 262253Z 21013G22KT 10SM FEW050 FEW110 04/M08 A2994 RMK AO2 SLP150 T00391078 $

Get Your Daily Forecast Email!

Thanks for signing up!

Be on the lookout for a verification email in your inbox.

You'll start receiving the daily forecast at 8 AM.

×

10-Day Weather Forecast

Almanac

Astronomy

Feb. 26, 2017 Rise Set
Actual Time
Civil Twilight
Nautical Twilight
Astronomical Twilight
Moon
Length of Visible Light
Length of Day
Tomorrow will be .
, % of the Moon is Illuminated

Today's Extremes

State Highs State Lows

Community

WunderPhotos

Upload Photos

1,962,540 photos uploaded!

WunderBlog® & News

Nearby

Air Quality

  Air Quality AQ Index Pollutant
Not available.

Snow Depth

Station Depth Elevation

Earthquake Activity

City Distance Mag. Time & Date
Minimum magnitude displayed is 2.5.

Coastal Water Temperatures

Place Temperature

Stations

Nearby Weather Stations

Station Location Temp. Windchill Dew Point Humidity Wind Precip. Elev Updated Type
                   

Watches & Warnings

There are currently no watches in effect.